sensor_id;sensor_type;location;lat;lon;timestamp;temperature;humidity
59572;DHT22;59406;45.602;11.904;2023-02-01T00:00:22;1.30;85.50
59572;DHT22;59406;45.602;11.904;2023-02-01T00:02:48;1.50;85.80
59572;DHT22;59406;45.602;11.904;2023-02-01T00:05:14;1.30;85.80
59572;DHT22;59406;45.602;11.904;2023-02-01T00:07:40;1.40;86.50
59572;DHT22;59406;45.602;11.904;2023-02-01T00:10:07;1.50;85.70
59572;DHT22;59406;45.602;11.904;2023-02-01T00:12:33;1.50;85.80
59572;DHT22;59406;45.602;11.904;2023-02-01T00:14:59;1.40;85.90
59572;DHT22;59406;45.602;11.904;2023-02-01T00:17:25;1.40;85.60
59572;DHT22;59406;45.602;11.904;2023-02-01T00:19:51;1.60;85.50
59572;DHT22;59406;45.602;11.904;2023-02-01T00:22:17;1.50;85.50
59572;DHT22;59406;45.602;11.904;2023-02-01T00:24:43;1.40;85.00
59572;DHT22;59406;45.602;11.904;2023-02-01T00:27:09;1.50;84.80
59572;DHT22;59406;45.602;11.904;2023-02-01T00:29:35;1.30;85.80
59572;DHT22;59406;45.602;11.904;2023-02-01T00:32:01;1.50;85.60
59572;DHT22;59406;45.602;11.904;2023-02-01T00:34:27;1.40;85.50
59572;DHT22;59406;45.602;11.904;2023-02-01T00:36:53;1.20;85.50
59572;DHT22;59406;45.602;11.904;2023-02-01T00:39:19;1.40;85.70
59572;DHT22;59406;45.602;11.904;2023-02-01T00:41:45;1.60;85.90
59572;DHT22;59406;45.602;11.904;2023-02-01T00:44:10;1.50;86.20
59572;DHT22;59406;45.602;11.904;2023-02-01T00:46:37;1.40;85.60
59572;DHT22;59406;45.602;11.904;2023-02-01T00:49:03;1.80;85.90
59572;DHT22;59406;45.602;11.904;2023-02-01T00:51:29;1.40;85.40
59572;DHT22;59406;45.602;11.904;2023-02-01T00:53:56;1.60;85.50
59572;DHT22;59406;45.602;11.904;2023-02-01T00:56:22;1.60;85.50
59572;DHT22;59406;45.602;11.904;2023-02-01T00:58:48;1.60;85.40
59572;DHT22;59406;45.602;11.904;2023-02-01T01:01:20;1.70;85.20
59572;DHT22;59406;45.602;11.904;2023-02-01T01:03:58;1.60;84.50
59572;DHT22;59406;45.602;11.904;2023-02-01T01:06:30;1.40;84.40
59572;DHT22;59406;45.602;11.904;2023-02-01T01:08:57;1.50;84.70
59572;DHT22;59406;45.602;11.904;2023-02-01T01:11:29;1.30;84.70
59572;DHT22;59406;45.602;11.904;2023-02-01T01:13:57;1.20;84.90
59572;DHT22;59406;45.602;11.904;2023-02-01T01:16:25;1.30;85.00
59572;DHT22;59406;45.602;11.904;2023-02-01T01:18:52;1.20;84.90
59572;DHT22;59406;45.602;11.904;2023-02-01T01:21:18;1.30;86.00
59572;DHT22;59406;45.602;11.904;2023-02-01T01:23:45;1.20;86.20
59572;DHT22;59406;45.602;11.904;2023-02-01T01:26:15;1.20;86.00
59572;DHT22;59406;45.602;11.904;2023-02-01T01:28:41;1.20;86.30
59572;DHT22;59406;45.602;11.904;2023-02-01T01:31:11;1.30;86.10
59572;DHT22;59406;45.602;11.904;2023-02-01T01:33:38;1.20;86.10
59572;DHT22;59406;45.602;11.904;2023-02-01T01:36:08;1.30;85.90
59572;DHT22;59406;45.602;11.904;2023-02-01T01:38:40;1.10;85.80
59572;DHT22;59406;45.602;11.904;2023-02-01T01:41:06;1.10;85.30
59572;DHT22;59406;45.602;11.904;2023-02-01T01:46:25;1.10;84.90
59572;DHT22;59406;45.602;11.904;2023-02-01T01:51:37;1.10;85.00
59572;DHT22;59406;45.602;11.904;2023-02-01T01:54:13;0.90;84.90
59572;DHT22;59406;45.602;11.904;2023-02-01T01:56:44;0.80;85.60
59572;DHT22;59406;45.602;11.904;2023-02-01T01:59:12;1.10;85.80
59572;DHT22;59406;45.602;11.904;2023-02-01T02:01:38;0.90;85.90
59572;DHT22;59406;45.602;11.904;2023-02-01T02:04:04;0.90;85.50
59572;DHT22;59406;45.602;11.904;2023-02-01T02:06:41;0.90;85.30
59572;DHT22;59406;45.602;11.904;2023-02-01T02:09:11;0.90;85.90
59572;DHT22;59406;45.602;11.904;2023-02-01T02:11:37;0.90;85.90
59572;DHT22;59406;45.602;11.904;2023-02-01T02:14:04;0.80;86.00
59572;DHT22;59406;45.602;11.904;2023-02-01T02:36:10;0.70;85.20
59572;DHT22;59406;45.602;11.904;2023-02-01T02:38:59;0.60;85.80
59572;DHT22;59406;45.602;11.904;2023-02-01T02:41:48;0.90;85.70
59572;DHT22;59406;45.602;11.904;2023-02-01T02:44:47;1.00;85.50
59572;DHT22;59406;45.602;11.904;2023-02-01T02:56:12;1.10;85.50
59572;DHT22;59406;45.602;11.904;2023-02-01T02:58:58;1.10;84.60
59572;DHT22;59406;45.602;11.904;2023-02-01T03:01:43;0.90;84.30
59572;DHT22;59406;45.602;11.904;2023-02-01T03:04:28;0.80;84.30
59572;DHT22;59406;45.602;11.904;2023-02-01T03:06:54;0.70;84.40
59572;DHT22;59406;45.602;11.904;2023-02-01T03:09:30;0.70;84.90
59572;DHT22;59406;45.602;11.904;2023-02-01T03:12:01;0.80;84.60
59572;DHT22;59406;45.602;11.904;2023-02-01T03:14:50;0.70;84.40
59572;DHT22;59406;45.602;11.904;2023-02-01T03:17:22;0.50;84.90
59572;DHT22;59406;45.602;11.904;2023-02-01T03:19:52;0.60;84.60
59572;DHT22;59406;45.602;11.904;2023-02-01T03:22:24;0.60;84.10
59572;DHT22;59406;45.602;11.904;2023-02-01T03:24:59;0.70;83.90
59572;DHT22;59406;45.602;11.904;2023-02-01T03:27:32;0.40;84.50
59572;DHT22;59406;45.602;11.904;2023-02-01T03:30:08;0.50;84.50
59572;DHT22;59406;45.602;11.904;2023-02-01T03:32:36;0.40;84.70
59572;DHT22;59406;45.602;11.904;2023-02-01T03:35:29;0.50;85.40
59572;DHT22;59406;45.602;11.904;2023-02-01T03:38:19;0.40;84.90
59572;DHT22;59406;45.602;11.904;2023-02-01T03:41:11;0.60;84.80
59572;DHT22;59406;45.602;11.904;2023-02-01T03:46:19;0.30;85.20
59572;DHT22;59406;45.602;11.904;2023-02-01T03:48:46;0.40;85.30
59572;DHT22;59406;45.602;11.904;2023-02-01T03:51:13;0.20;84.80
59572;DHT22;59406;45.602;11.904;2023-02-01T03:53:40;0.30;85.20
59572;DHT22;59406;45.602;11.904;2023-02-01T03:56:08;0.40;85.50
59572;DHT22;59406;45.602;11.904;2023-02-01T03:58:34;0.40;85.30
59572;DHT22;59406;45.602;11.904;2023-02-01T04:01:01;0.40;84.80
59572;DHT22;59406;45.602;11.904;2023-02-01T04:03:27;0.30;84.50
59572;DHT22;59406;45.602;11.904;2023-02-01T04:05:54;0.30;84.60
59572;DHT22;59406;45.602;11.904;2023-02-01T04:08:21;0.20;85.20
59572;DHT22;59406;45.602;11.904;2023-02-01T04:10:46;0.20;84.70
59572;DHT22;59406;45.602;11.904;2023-02-01T04:13:12;0.10;85.10
59572;DHT22;59406;45.602;11.904;2023-02-01T04:15:38;0.10;85.20
59572;DHT22;59406;45.602;11.904;2023-02-01T04:18:04;0.10;85.30
59572;DHT22;59406;45.602;11.904;2023-02-01T04:20:30;0.10;85.30
59572;DHT22;59406;45.602;11.904;2023-02-01T04:22:56;0.00;85.70
59572;DHT22;59406;45.602;11.904;2023-02-01T04:25:22;0.00;85.40
59572;DHT22;59406;45.602;11.904;2023-02-01T04:27:48;0.00;85.30
59572;DHT22;59406;45.602;11.904;2023-02-01T04:30:14;0.00;85.20
59572;DHT22;59406;45.602;11.904;2023-02-01T04:32:40;0.00;84.90
59572;DHT22;59406;45.602;11.904;2023-02-01T04:35:07;-3276.70;84.90
59572;DHT22;59406;45.602;11.904;2023-02-01T04:37:33;0.00;85.30
59572;DHT22;59406;45.602;11.904;2023-02-01T04:39:59;0.00;85.40
59572;DHT22;59406;45.602;11.904;2023-02-01T04:42:25;-3276.70;85.70
59572;DHT22;59406;45.602;11.904;2023-02-01T04:44:51;-3276.70;85.30
59572;DHT22;59406;45.602;11.904;2023-02-01T04:47:17;-3276.70;85.10
59572;DHT22;59406;45.602;11.904;2023-02-01T04:49:43;-3276.60;85.20
59572;DHT22;59406;45.602;11.904;2023-02-01T04:52:09;-3276.50;85.30
59572;DHT22;59406;45.602;11.904;2023-02-01T04:54:35;-3276.40;85.80
59572;DHT22;59406;45.602;11.904;2023-02-01T04:57:00;-3276.40;86.10
59572;DHT22;59406;45.602;11.904;2023-02-01T04:59:26;-3276.70;86.00
59572;DHT22;59406;45.602;11.904;2023-02-01T05:01:53;-3276.60;85.20
59572;DHT22;59406;45.602;11.904;2023-02-01T05:04:19;0.00;85.60
59572;DHT22;59406;45.602;11.904;2023-02-01T05:06:45;-3276.60;85.40
59572;DHT22;59406;45.602;11.904;2023-02-01T05:09:11;-3276.40;86.90
59572;DHT22;59406;45.602;11.904;2023-02-01T05:11:37;-3276.70;86.80
59572;DHT22;59406;45.602;11.904;2023-02-01T05:14:21;-3276.70;86.80
59572;DHT22;59406;45.602;11.904;2023-02-01T05:16:47;0.00;85.40
59572;DHT22;59406;45.602;11.904;2023-02-01T05:19:13;0.00;86.60
59572;DHT22;59406;45.602;11.904;2023-02-01T05:21:39;0.00;86.40
59572;DHT22;59406;45.602;11.904;2023-02-01T05:24:06;0.10;86.00
59572;DHT22;59406;45.602;11.904;2023-02-01T05:26:42;0.30;86.10
59572;DHT22;59406;45.602;11.904;2023-02-01T05:29:10;0.20;86.30
59572;DHT22;59406;45.602;11.904;2023-02-01T05:31:36;0.20;86.30
59572;DHT22;59406;45.602;11.904;2023-02-01T05:34:02;0.40;86.40
59572;DHT22;59406;45.602;11.904;2023-02-01T05:36:28;0.40;86.20
59572;DHT22;59406;45.602;11.904;2023-02-01T05:38:53;0.60;86.60
59572;DHT22;59406;45.602;11.904;2023-02-01T05:41:19;0.60;86.30
59572;DHT22;59406;45.602;11.904;2023-02-01T05:43:45;0.70;85.90
59572;DHT22;59406;45.602;11.904;2023-02-01T05:46:11;0.70;86.00
59572;DHT22;59406;45.602;11.904;2023-02-01T05:48:41;0.80;86.00
59572;DHT22;59406;45.602;11.904;2023-02-01T05:51:08;0.80;85.90
59572;DHT22;59406;45.602;11.904;2023-02-01T05:53:34;0.90;86.20
59572;DHT22;59406;45.602;11.904;2023-02-01T05:56:00;0.90;86.10
59572;DHT22;59406;45.602;11.904;2023-02-01T05:58:26;1.10;85.80
59572;DHT22;59406;45.602;11.904;2023-02-01T06:00:52;1.20;85.70
59572;DHT22;59406;45.602;11.904;2023-02-01T06:03:18;1.20;85.50
59572;DHT22;59406;45.602;11.904;2023-02-01T06:05:44;1.30;85.40
59572;DHT22;59406;45.602;11.904;2023-02-01T06:08:11;1.30;85.40
59572;DHT22;59406;45.602;11.904;2023-02-01T06:10:37;1.50;85.70
59572;DHT22;59406;45.602;11.904;2023-02-01T06:13:03;1.60;85.30
59572;DHT22;59406;45.602;11.904;2023-02-01T06:15:30;1.60;85.30
59572;DHT22;59406;45.602;11.904;2023-02-01T06:17:56;1.60;85.10
59572;DHT22;59406;45.602;11.904;2023-02-01T06:20:22;1.80;85.80
59572;DHT22;59406;45.602;11.904;2023-02-01T06:22:48;1.70;85.70
59572;DHT22;59406;45.602;11.904;2023-02-01T06:25:14;1.80;85.20
59572;DHT22;59406;45.602;11.904;2023-02-01T06:27:40;1.80;84.70
59572;DHT22;59406;45.602;11.904;2023-02-01T06:30:07;1.70;84.80
59572;DHT22;59406;45.602;11.904;2023-02-01T06:32:33;1.80;84.70
59572;DHT22;59406;45.602;11.904;2023-02-01T06:34:58;1.90;85.20
59572;DHT22;59406;45.602;11.904;2023-02-01T06:37:26;2.10;85.10
59572;DHT22;59406;45.602;11.904;2023-02-01T06:39:54;1.90;84.50
59572;DHT22;59406;45.602;11.904;2023-02-01T06:42:20;1.90;84.60
59572;DHT22;59406;45.602;11.904;2023-02-01T06:44:46;1.90;84.40
59572;DHT22;59406;45.602;11.904;2023-02-01T06:47:12;2.00;84.10
59572;DHT22;59406;45.602;11.904;2023-02-01T06:49:38;2.10;84.70
59572;DHT22;59406;45.602;11.904;2023-02-01T06:52:03;2.20;84.00
59572;DHT22;59406;45.602;11.904;2023-02-01T06:54:29;2.20;84.20
59572;DHT22;59406;45.602;11.904;2023-02-01T06:56:59;2.10;84.20
59572;DHT22;59406;45.602;11.904;2023-02-01T06:59:24;2.30;84.40
59572;DHT22;59406;45.602;11.904;2023-02-01T07:01:50;2.20;84.50
59572;DHT22;59406;45.602;11.904;2023-02-01T07:04:16;2.50;84.30
59572;DHT22;59406;45.602;11.904;2023-02-01T07:06:42;2.40;84.10
59572;DHT22;59406;45.602;11.904;2023-02-01T07:09:08;2.50;84.10
59572;DHT22;59406;45.602;11.904;2023-02-01T07:11:33;2.60;84.10
59572;DHT22;59406;45.602;11.904;2023-02-01T07:14:00;2.60;84.30
59572;DHT22;59406;45.602;11.904;2023-02-01T07:16:26;2.50;84.40
59572;DHT22;59406;45.602;11.904;2023-02-01T07:18:52;2.60;83.90
59572;DHT22;59406;45.602;11.904;2023-02-01T07:21:19;2.70;84.00
59572;DHT22;59406;45.602;11.904;2023-02-01T07:23:46;2.70;83.70
59572;DHT22;59406;45.602;11.904;2023-02-01T07:26:13;2.90;84.00
59572;DHT22;59406;45.602;11.904;2023-02-01T07:28:39;2.60;83.90
59572;DHT22;59406;45.602;11.904;2023-02-01T07:31:13;2.70;83.70
59572;DHT22;59406;45.602;11.904;2023-02-01T07:33:41;2.70;83.60
59572;DHT22;59406;45.602;11.904;2023-02-01T07:36:10;2.80;83.80
59572;DHT22;59406;45.602;11.904;2023-02-01T07:38:37;2.90;83.60
59572;DHT22;59406;45.602;11.904;2023-02-01T07:41:06;2.90;83.70
59572;DHT22;59406;45.602;11.904;2023-02-01T07:43:33;3.00;83.90
59572;DHT22;59406;45.602;11.904;2023-02-01T07:46:00;3.00;83.70
59572;DHT22;59406;45.602;11.904;2023-02-01T07:48:26;3.20;83.90
59572;DHT22;59406;45.602;11.904;2023-02-01T07:51:10;3.30;84.10
59572;DHT22;59406;45.602;11.904;2023-02-01T07:53:37;3.60;83.90
59572;DHT22;59406;45.602;11.904;2023-02-01T07:56:03;3.40;83.40
59572;DHT22;59406;45.602;11.904;2023-02-01T07:58:30;3.50;83.40
59572;DHT22;59406;45.602;11.904;2023-02-01T08:00:56;3.70;83.20
59572;DHT22;59406;45.602;11.904;2023-02-01T08:03:40;3.80;83.20
59572;DHT22;59406;45.602;11.904;2023-02-01T08:06:06;4.00;83.10
59572;DHT22;59406;45.602;11.904;2023-02-01T08:08:32;4.10;82.50
59572;DHT22;59406;45.602;11.904;2023-02-01T08:10:59;4.50;82.00
59572;DHT22;59406;45.602;11.904;2023-02-01T08:13:25;4.60;81.70
59572;DHT22;59406;45.602;11.904;2023-02-01T08:15:51;4.60;81.30
59572;DHT22;59406;45.602;11.904;2023-02-01T08:18:17;4.60;81.50
59572;DHT22;59406;45.602;11.904;2023-02-01T08:20:44;4.70;81.50
59572;DHT22;59406;45.602;11.904;2023-02-01T08:23:12;5.00;81.10
59572;DHT22;59406;45.602;11.904;2023-02-01T08:25:38;5.00;81.20
59572;DHT22;59406;45.602;11.904;2023-02-01T08:28:05;5.00;81.40
59572;DHT22;59406;45.602;11.904;2023-02-01T08:30:31;5.20;80.70
59572;DHT22;59406;45.602;11.904;2023-02-01T08:32:58;5.30;80.80
59572;DHT22;59406;45.602;11.904;2023-02-01T08:35:23;5.40;80.80
59572;DHT22;59406;45.602;11.904;2023-02-01T08:37:50;5.20;80.90
59572;DHT22;59406;45.602;11.904;2023-02-01T08:40:16;5.30;80.80
59572;DHT22;59406;45.602;11.904;2023-02-01T08:42:42;5.50;80.70
59572;DHT22;59406;45.602;11.904;2023-02-01T08:45:18;5.70;80.30
59572;DHT22;59406;45.602;11.904;2023-02-01T08:47:45;5.80;80.00
59572;DHT22;59406;45.602;11.904;2023-02-01T08:50:13;6.10;79.70
59572;DHT22;59406;45.602;11.904;2023-02-01T08:52:39;6.40;79.50
59572;DHT22;59406;45.602;11.904;2023-02-01T08:55:06;6.60;79.50
59572;DHT22;59406;45.602;11.904;2023-02-01T08:57:33;6.70;79.40
59572;DHT22;59406;45.602;11.904;2023-02-01T09:00:00;7.30;78.90
59572;DHT22;59406;45.602;11.904;2023-02-01T09:02:26;7.50;78.70
59572;DHT22;59406;45.602;11.904;2023-02-01T09:04:52;7.70;78.20
59572;DHT22;59406;45.602;11.904;2023-02-01T09:07:18;8.00;78.00
59572;DHT22;59406;45.602;11.904;2023-02-01T09:09:44;8.10;77.60
59572;DHT22;59406;45.602;11.904;2023-02-01T09:12:11;8.20;78.40
59572;DHT22;59406;45.602;11.904;2023-02-01T09:14:37;8.90;77.30
59572;DHT22;59406;45.602;11.904;2023-02-01T09:17:03;9.00;76.50
59572;DHT22;59406;45.602;11.904;2023-02-01T09:19:31;9.20;76.80
59572;DHT22;59406;45.602;11.904;2023-02-01T09:21:57;9.40;76.30
59572;DHT22;59406;45.602;11.904;2023-02-01T09:24:23;9.60;75.80
59572;DHT22;59406;45.602;11.904;2023-02-01T09:26:48;10.10;75.10
59572;DHT22;59406;45.602;11.904;2023-02-01T09:29:14;10.20;75.50
59572;DHT22;59406;45.602;11.904;2023-02-01T09:31:40;10.30;75.60
59572;DHT22;59406;45.602;11.904;2023-02-01T09:35:06;10.30;74.00
59572;DHT22;59406;45.602;11.904;2023-02-01T09:37:32;10.50;75.20
59572;DHT22;59406;45.602;11.904;2023-02-01T09:39:58;10.70;75.10
59572;DHT22;59406;45.602;11.904;2023-02-01T09:48:05;11.20;73.90
59572;DHT22;59406;45.602;11.904;2023-02-01T09:50:38;11.80;74.20
59572;DHT22;59406;45.602;11.904;2023-02-01T09:53:06;12.70;73.10
59572;DHT22;59406;45.602;11.904;2023-02-01T09:55:45;12.70;72.50
59572;DHT22;59406;45.602;11.904;2023-02-01T09:58:29;12.50;72.90
59572;DHT22;59406;45.602;11.904;2023-02-01T10:00:59;12.40;73.50
59572;DHT22;59406;45.602;11.904;2023-02-01T10:03:29;12.50;73.60
59572;DHT22;59406;45.602;11.904;2023-02-01T10:14:10;13.00;71.90
59572;DHT22;59406;45.602;11.904;2023-02-01T10:17:00;13.00;71.20
59572;DHT22;59406;45.602;11.904;2023-02-01T10:22:09;13.30;71.50
59572;DHT22;59406;45.602;11.904;2023-02-01T10:24:58;13.50;71.30
59572;DHT22;59406;45.602;11.904;2023-02-01T10:27:38;13.40;71.20
59572;DHT22;59406;45.602;11.904;2023-02-01T10:30:25;13.30;71.30
59572;DHT22;59406;45.602;11.904;2023-02-01T10:32:56;13.30;71.10
59572;DHT22;59406;45.602;11.904;2023-02-01T10:35:31;13.60;71.70
59572;DHT22;59406;45.602;11.904;2023-02-01T10:38:02;14.20;71.40
59572;DHT22;59406;45.602;11.904;2023-02-01T10:40:31;14.40;71.10
59572;DHT22;59406;45.602;11.904;2023-02-01T10:43:00;14.50;70.50
59572;DHT22;59406;45.602;11.904;2023-02-01T10:45:29;15.00;70.80
59572;DHT22;59406;45.602;11.904;2023-02-01T10:47:57;15.40;70.30
59572;DHT22;59406;45.602;11.904;2023-02-01T10:50:37;15.60;68.90
59572;DHT22;59406;45.602;11.904;2023-02-01T10:53:11;15.90;68.10
59572;DHT22;59406;45.602;11.904;2023-02-01T10:55:49;15.70;68.40
59572;DHT22;59406;45.602;11.904;2023-02-01T10:58:27;16.20;68.60
59572;DHT22;59406;45.602;11.904;2023-02-01T11:01:03;16.60;67.60
59572;DHT22;59406;45.602;11.904;2023-02-01T11:05:58;16.90;67.20
59572;DHT22;59406;45.602;11.904;2023-02-01T11:08:25;17.20;67.30
59572;DHT22;59406;45.602;11.904;2023-02-01T11:11:02;17.80;67.20
59572;DHT22;59406;45.602;11.904;2023-02-01T11:13:32;17.90;66.50
59572;DHT22;59406;45.602;11.904;2023-02-01T11:16:04;18.10;66.30
59572;DHT22;59406;45.602;11.904;2023-02-01T11:18:35;18.50;65.20
59572;DHT22;59406;45.602;11.904;2023-02-01T11:21:01;17.90;66.20
59572;DHT22;59406;45.602;11.904;2023-02-01T11:23:30;17.20;66.10
59572;DHT22;59406;45.602;11.904;2023-02-01T11:26:15;17.70;66.70
59572;DHT22;59406;45.602;11.904;2023-02-01T11:29:10;18.40;64.90
59572;DHT22;59406;45.602;11.904;2023-02-01T11:31:37;18.90;59.50
59572;DHT22;59406;45.602;11.904;2023-02-01T11:34:52;19.30;63.90
59572;DHT22;59406;45.602;11.904;2023-02-01T11:36:55;19.10;64.20
59572;DHT22;59406;45.602;11.904;2023-02-01T11:39:29;18.60;64.40
59572;DHT22;59406;45.602;11.904;2023-02-01T11:42:05;18.60;64.40
59572;DHT22;59406;45.602;11.904;2023-02-01T11:44:40;18.70;64.10
59572;DHT22;59406;45.602;11.904;2023-02-01T11:49:52;18.10;65.70
59572;DHT22;59406;45.602;11.904;2023-02-01T11:55:42;17.10;66.70
59572;DHT22;59406;45.602;11.904;2023-02-01T12:01:29;17.80;65.60
59572;DHT22;59406;45.602;11.904;2023-02-01T12:06:56;17.10;65.80
59572;DHT22;59406;45.602;11.904;2023-02-01T12:15:38;18.90;59.50
59572;DHT22;59406;45.602;11.904;2023-02-01T12:21:53;19.50;59.50
59572;DHT22;59406;45.602;11.904;2023-02-01T12:38:31;19.80;55.20
59572;DHT22;59406;45.602;11.904;2023-02-01T12:44:01;20.20;56.10
59572;DHT22;59406;45.602;11.904;2023-02-01T12:46:37;20.60;56.40
59572;DHT22;59406;45.602;11.904;2023-02-01T12:52:14;21.30;52.30
59572;DHT22;59406;45.602;11.904;2023-02-01T12:54:48;21.60;50.90
59572;DHT22;59406;45.602;11.904;2023-02-01T12:57:21;21.20;50.50
59572;DHT22;59406;45.602;11.904;2023-02-01T13:02:46;20.80;53.20
59572;DHT22;59406;45.602;11.904;2023-02-01T13:08:14;20.20;54.20
59572;DHT22;59406;45.602;11.904;2023-02-01T13:10:58;20.30;55.30
59572;DHT22;59406;45.602;11.904;2023-02-01T13:13:52;21.00;53.30
59572;DHT22;59406;45.602;11.904;2023-02-01T13:16:41;21.10;50.70
59572;DHT22;59406;45.602;11.904;2023-02-01T13:19:30;20.60;53.20
59572;DHT22;59406;45.602;11.904;2023-02-01T13:22:19;21.40;50.70
59572;DHT22;59406;45.602;11.904;2023-02-01T13:24:50;22.40;49.80
59572;DHT22;59406;45.602;11.904;2023-02-01T13:27:17;23.00;50.30
59572;DHT22;59406;45.602;11.904;2023-02-01T13:30:00;22.10;49.80
59572;DHT22;59406;45.602;11.904;2023-02-01T13:32:44;21.10;50.40
59572;DHT22;59406;45.602;11.904;2023-02-01T13:41:31;21.20;51.20
59572;DHT22;59406;45.602;11.904;2023-02-01T13:44:10;22.10;49.00
59572;DHT22;59406;45.602;11.904;2023-02-01T13:46:43;22.20;47.40
59572;DHT22;59406;45.602;11.904;2023-02-01T13:49:20;21.70;50.30
59572;DHT22;59406;45.602;11.904;2023-02-01T13:51:49;21.70;48.20
59572;DHT22;59406;45.602;11.904;2023-02-01T13:54:36;21.30;50.20
59572;DHT22;59406;45.602;11.904;2023-02-01T13:57:06;21.50;48.40
59572;DHT22;59406;45.602;11.904;2023-02-01T14:10:58;20.70;50.50
59572;DHT22;59406;45.602;11.904;2023-02-01T14:21:31;22.20;48.20
59572;DHT22;59406;45.602;11.904;2023-02-01T14:26:52;21.90;47.90
59572;DHT22;59406;45.602;11.904;2023-02-01T14:29:32;22.00;48.30
59572;DHT22;59406;45.602;11.904;2023-02-01T14:34:57;22.00;48.80
59572;DHT22;59406;45.602;11.904;2023-02-01T14:37:30;21.80;47.30
59572;DHT22;59406;45.602;11.904;2023-02-01T14:40:24;22.10;47.60
59572;DHT22;59406;45.602;11.904;2023-02-01T14:42:51;21.10;47.60
59572;DHT22;59406;45.602;11.904;2023-02-01T14:47:54;21.30;48.20
59572;DHT22;59406;45.602;11.904;2023-02-01T14:56:00;20.60;49.90
59572;DHT22;59406;45.602;11.904;2023-02-01T15:04:04;21.00;49.30
59572;DHT22;59406;45.602;11.904;2023-02-01T15:06:52;20.90;48.70
59572;DHT22;59406;45.602;11.904;2023-02-01T15:12:04;18.80;53.50
59572;DHT22;59406;45.602;11.904;2023-02-01T15:14:33;18.20;54.90
59572;DHT22;59406;45.602;11.904;2023-02-01T15:16:59;17.90;56.30
59572;DHT22;59406;45.602;11.904;2023-02-01T15:19:27;17.20;63.60
59572;DHT22;59406;45.602;11.904;2023-02-01T15:21:55;16.80;63.90
59572;DHT22;59406;45.602;11.904;2023-02-01T15:24:23;16.50;64.10
59572;DHT22;59406;45.602;11.904;2023-02-01T15:26:50;16.20;64.60
59572;DHT22;59406;45.602;11.904;2023-02-01T15:29:18;15.60;65.00
59572;DHT22;59406;45.602;11.904;2023-02-01T15:31:51;14.90;67.00
59572;DHT22;59406;45.602;11.904;2023-02-01T15:34:18;14.90;67.00
59572;DHT22;59406;45.602;11.904;2023-02-01T15:36:45;14.80;67.20
59572;DHT22;59406;45.602;11.904;2023-02-01T15:39:23;14.50;67.50
59572;DHT22;59406;45.602;11.904;2023-02-01T15:42:00;14.30;67.90
59572;DHT22;59406;45.602;11.904;2023-02-01T15:44:41;14.10;68.20
59572;DHT22;59406;45.602;11.904;2023-02-01T15:47:28;13.90;68.30
59572;DHT22;59406;45.602;11.904;2023-02-01T15:49:58;13.70;68.60
59572;DHT22;59406;45.602;11.904;2023-02-01T15:52:36;13.50;68.70
59572;DHT22;59406;45.602;11.904;2023-02-01T15:55:08;13.30;68.90
59572;DHT22;59406;45.602;11.904;2023-02-01T15:57:43;13.10;69.10
59572;DHT22;59406;45.602;11.904;2023-02-01T16:00:35;12.90;69.20
59572;DHT22;59406;45.602;11.904;2023-02-01T16:03:10;12.70;70.00
59572;DHT22;59406;45.602;11.904;2023-02-01T16:05:58;12.30;71.00
59572;DHT22;59406;45.602;11.904;2023-02-01T16:08:26;12.10;71.20
59572;DHT22;59406;45.602;11.904;2023-02-01T16:11:40;11.90;71.30
59572;DHT22;59406;45.602;11.904;2023-02-01T16:13:40;11.70;71.30
59572;DHT22;59406;45.602;11.904;2023-02-01T16:16:08;11.50;71.30
59572;DHT22;59406;45.602;11.904;2023-02-01T16:18:42;11.30;71.40
59572;DHT22;59406;45.602;11.904;2023-02-01T16:21:08;11.10;72.10
59572;DHT22;59406;45.602;11.904;2023-02-01T16:23:35;10.80;72.40
59572;DHT22;59406;45.602;11.904;2023-02-01T16:26:02;10.60;72.70
59572;DHT22;59406;45.602;11.904;2023-02-01T16:28:28;10.40;73.20
59572;DHT22;59406;45.602;11.904;2023-02-01T16:30:54;10.00;74.10
59572;DHT22;59406;45.602;11.904;2023-02-01T16:33:21;9.80;73.90
59572;DHT22;59406;45.602;11.904;2023-02-01T16:35:50;9.70;73.90
59572;DHT22;59406;45.602;11.904;2023-02-01T16:38:18;9.50;74.30
59572;DHT22;59406;45.602;11.904;2023-02-01T16:40:47;9.40;75.20
59572;DHT22;59406;45.602;11.904;2023-02-01T16:45:42;9.30;74.60
59572;DHT22;59406;45.602;11.904;2023-02-01T16:48:19;9.20;75.20
59572;DHT22;59406;45.602;11.904;2023-02-01T16:50:47;9.00;75.00
59572;DHT22;59406;45.602;11.904;2023-02-01T16:53:15;9.00;75.20
59572;DHT22;59406;45.602;11.904;2023-02-01T16:55:42;9.00;74.90
59572;DHT22;59406;45.602;11.904;2023-02-01T16:58:09;8.90;74.60
59572;DHT22;59406;45.602;11.904;2023-02-01T17:00:35;8.70;75.40
59572;DHT22;59406;45.602;11.904;2023-02-01T17:03:04;8.60;76.00
59572;DHT22;59406;45.602;11.904;2023-02-01T17:05:33;8.30;76.40
59572;DHT22;59406;45.602;11.904;2023-02-01T17:08:03;8.30;76.00
59572;DHT22;59406;45.602;11.904;2023-02-01T17:10:31;8.30;76.00
59572;DHT22;59406;45.602;11.904;2023-02-01T17:12:57;8.20;75.90
59572;DHT22;59406;45.602;11.904;2023-02-01T17:15:27;8.20;75.80
59572;DHT22;59406;45.602;11.904;2023-02-01T17:17:54;8.00;76.10
59572;DHT22;59406;45.602;11.904;2023-02-01T17:20:23;7.90;76.00
59572;DHT22;59406;45.602;11.904;2023-02-01T17:22:50;7.80;76.10
59572;DHT22;59406;45.602;11.904;2023-02-01T17:25:18;7.80;76.00
59572;DHT22;59406;45.602;11.904;2023-02-01T17:27:44;7.50;76.30
59572;DHT22;59406;45.602;11.904;2023-02-01T17:30:12;7.60;76.90
59572;DHT22;59406;45.602;11.904;2023-02-01T17:32:38;7.40;77.60
59572;DHT22;59406;45.602;11.904;2023-02-01T17:35:08;7.30;77.60
59572;DHT22;59406;45.602;11.904;2023-02-01T17:37:52;7.20;77.20
59572;DHT22;59406;45.602;11.904;2023-02-01T17:40:18;7.00;76.60
59572;DHT22;59406;45.602;11.904;2023-02-01T17:42:44;7.10;76.50
59572;DHT22;59406;45.602;11.904;2023-02-01T17:48:05;6.90;78.40
59572;DHT22;59406;45.602;11.904;2023-02-01T17:50:33;6.70;77.60
59572;DHT22;59406;45.602;11.904;2023-02-01T17:53:00;6.50;78.00
59572;DHT22;59406;45.602;11.904;2023-02-01T17:55:28;6.60;78.40
59572;DHT22;59406;45.602;11.904;2023-02-01T17:57:54;6.40;78.80
59572;DHT22;59406;45.602;11.904;2023-02-01T18:00:20;6.30;78.20
59572;DHT22;59406;45.602;11.904;2023-02-01T18:02:46;6.40;77.40
59572;DHT22;59406;45.602;11.904;2023-02-01T18:07:47;6.00;79.10
59572;DHT22;59406;45.602;11.904;2023-02-01T18:10:13;6.10;78.70
59572;DHT22;59406;45.602;11.904;2023-02-01T18:12:39;6.00;78.50
59572;DHT22;59406;45.602;11.904;2023-02-01T18:15:17;6.00;78.10
59572;DHT22;59406;45.602;11.904;2023-02-01T18:17:44;5.80;79.10
59572;DHT22;59406;45.602;11.904;2023-02-01T18:20:20;5.90;79.30
59572;DHT22;59406;45.602;11.904;2023-02-01T18:22:47;5.80;78.40